createdAt,value
2022-09-23T00:01:20.608Z,1013.49
2022-09-23T00:02:20.542Z,1013.50
2022-09-23T00:04:24.998Z,1013.48
2022-09-23T00:05:24.530Z,1013.50
2022-09-23T00:07:28.536Z,1013.48
2022-09-23T00:08:28.547Z,1013.50
2022-09-23T00:10:34.539Z,1013.47
2022-09-23T00:11:33.579Z,1013.46
2022-09-23T00:13:37.584Z,1013.42
2022-09-23T00:14:37.600Z,1013.44
2022-09-23T00:16:43.664Z,1013.43
2022-09-23T00:17:41.627Z,1013.41
2022-09-23T00:19:45.644Z,1013.38
2022-09-23T00:20:45.659Z,1013.40
2022-09-23T00:22:50.146Z,1013.38
2022-09-23T00:23:49.685Z,1013.36
2022-09-23T00:25:53.699Z,1013.35
2022-09-23T00:26:53.709Z,1013.35
2022-09-23T00:28:58.698Z,1013.34
2022-09-23T00:29:57.748Z,1013.36
2022-09-23T00:31:50.661Z,1013.34
2022-09-23T00:32:50.674Z,1013.35
2022-09-23T00:34:55.166Z,1013.31
2022-09-23T00:35:54.691Z,1013.33
2022-09-23T00:37:58.701Z,1013.29
2022-09-23T00:38:58.759Z,1013.31
2022-09-23T00:41:03.209Z,1013.28
2022-09-23T00:42:02.767Z,1013.27
2022-09-23T00:44:06.751Z,1013.28
2022-09-23T00:45:06.770Z,1013.27
2022-09-23T00:47:11.249Z,1013.24
2022-09-23T00:48:10.776Z,1013.22
2022-09-23T00:50:14.798Z,1013.21
2022-09-23T00:51:14.810Z,1013.23
2022-09-23T00:53:19.305Z,1013.23
2022-09-23T00:54:18.826Z,1013.21
2022-09-23T00:56:22.841Z,1013.20
2022-09-23T00:57:22.851Z,1013.17
2022-09-23T00:59:27.339Z,1013.14
2022-09-23T01:00:26.871Z,1013.15
2022-09-23T01:02:30.902Z,1013.14
2022-09-23T01:03:30.891Z,1013.13
2022-09-23T01:05:35.379Z,1013.10
2022-09-23T01:06:34.908Z,1013.10
2022-09-23T01:08:38.932Z,1013.11
2022-09-23T01:09:38.940Z,1013.08
2022-09-23T01:11:32.406Z,1013.07
2022-09-23T01:12:31.877Z,1013.07
2022-09-23T01:14:35.881Z,1013.04
2022-09-23T01:15:35.913Z,1013.03
2022-09-23T01:17:40.387Z,1013.02
2022-09-23T01:18:39.924Z,1012.98
2022-09-23T01:20:43.931Z,1012.93
2022-09-23T01:21:43.948Z,1012.90
2022-09-23T01:23:48.437Z,1012.90
2022-09-23T01:24:47.970Z,1012.89
2022-09-23T01:26:52.000Z,1012.91
2022-09-23T01:27:51.989Z,1012.89
2022-09-23T01:29:56.485Z,1012.85
2022-09-23T01:30:56.036Z,1012.83
2022-09-23T01:33:00.020Z,1012.82
2022-09-23T01:34:00.041Z,1012.81
2022-09-23T01:36:04.519Z,1012.83
2022-09-23T01:37:04.056Z,1012.81
2022-09-23T01:40:01.162Z,1012.81
2022-09-23T01:41:01.175Z,1012.80
2022-09-23T01:43:05.667Z,1012.81
2022-09-23T01:44:05.199Z,1012.81
2022-09-23T01:46:09.692Z,1012.77
2022-09-23T01:47:09.706Z,1012.77
2022-09-23T01:48:09.742Z,1012.79
2022-09-23T01:49:09.753Z,1012.78
2022-09-23T01:50:09.769Z,1012.79
2022-09-23T01:51:09.796Z,1012.77
2022-09-23T01:52:09.813Z,1012.80
2022-09-23T01:53:09.832Z,1012.75
2022-09-23T01:54:09.851Z,1012.75
2022-09-23T01:55:09.889Z,1012.73
2022-09-23T01:56:09.897Z,1012.73
2022-09-23T01:57:09.921Z,1012.77
2022-09-23T01:58:09.938Z,1012.77
2022-09-23T01:59:09.962Z,1012.74
2022-09-23T02:00:09.982Z,1012.73
2022-09-23T02:01:10.070Z,1012.73
2022-09-23T02:02:10.074Z,1012.73
2022-09-23T02:03:10.057Z,1012.73
2022-09-23T02:04:10.084Z,1012.72
2022-09-23T02:05:10.091Z,1012.73
2022-09-23T02:06:10.108Z,1012.72
2022-09-23T02:07:10.133Z,1012.70
2022-09-23T02:08:10.151Z,1012.74
2022-09-23T02:09:10.174Z,1012.73
2022-09-23T02:10:10.194Z,1012.70
2022-09-23T02:11:10.219Z,1012.71
2022-09-23T02:12:10.236Z,1012.70
2022-09-23T02:13:10.265Z,1012.68
2022-09-23T02:14:10.282Z,1012.68
2022-09-23T02:15:10.298Z,1012.68
2022-09-23T02:16:10.356Z,1012.66
2022-09-23T02:17:10.345Z,1012.71
2022-09-23T02:18:10.363Z,1012.66
2022-09-23T02:19:10.454Z,1012.72
2022-09-23T02:20:10.408Z,1012.68
2022-09-23T02:21:10.425Z,1012.64
2022-09-23T02:22:10.449Z,1012.64
2022-09-23T02:23:10.484Z,1012.64
2022-09-23T02:24:10.492Z,1012.62
2022-09-23T02:25:10.515Z,1012.61
2022-09-23T02:26:10.537Z,1012.58
2022-09-23T02:27:10.558Z,1012.59
2022-09-23T02:28:10.579Z,1012.57
2022-09-23T02:29:10.599Z,1012.61
2022-09-23T02:30:10.619Z,1012.60
2022-09-23T02:31:10.667Z,1012.59
2022-09-23T02:32:10.729Z,1012.60
2022-09-23T02:33:10.685Z,1012.59
2022-09-23T02:34:10.761Z,1012.60
2022-09-23T02:35:10.727Z,1012.59
2022-09-23T02:36:10.744Z,1012.61
2022-09-23T02:37:10.766Z,1012.59
2022-09-23T02:38:10.789Z,1012.58
2022-09-23T02:39:10.812Z,1012.59
2022-09-23T02:40:10.890Z,1012.59
2022-09-23T02:41:10.857Z,1012.58
2022-09-23T02:42:10.881Z,1012.56
2022-09-23T02:43:10.899Z,1012.54
2022-09-23T02:44:10.991Z,1012.54
2022-09-23T02:45:10.940Z,1012.52
2022-09-23T02:46:11.029Z,1012.50
2022-09-23T02:47:10.995Z,1012.50
2022-09-23T02:48:11.025Z,1012.47
2022-09-23T02:49:11.024Z,1012.50
2022-09-23T02:50:11.046Z,1012.50
2022-09-23T02:51:11.078Z,1012.49
2022-09-23T02:52:11.090Z,1012.50
2022-09-23T02:53:11.110Z,1012.49
2022-09-23T02:54:11.143Z,1012.49
2022-09-23T02:55:11.155Z,1012.45
2022-09-23T02:56:11.177Z,1012.46
2022-09-23T02:57:11.200Z,1012.49
2022-09-23T02:58:11.219Z,1012.49
2022-09-23T02:59:11.240Z,1012.45
2022-09-23T03:00:11.277Z,1012.47
2022-09-23T03:01:11.338Z,1012.44
2022-09-23T03:02:11.348Z,1012.44
2022-09-23T03:03:11.325Z,1012.44
2022-09-23T03:04:11.350Z,1012.44
2022-09-23T03:05:11.384Z,1012.44
2022-09-23T03:06:11.389Z,1012.41
2022-09-23T03:07:11.409Z,1012.41
2022-09-23T03:08:11.428Z,1012.42
2022-09-23T03:09:11.447Z,1012.41
2022-09-23T03:10:11.474Z,1012.40
2022-09-23T03:11:11.490Z,1012.40
2022-09-23T03:12:11.514Z,1012.34
2022-09-23T03:13:11.537Z,1012.33
2022-09-23T03:14:11.557Z,1012.32
2022-09-23T03:15:11.578Z,1012.30
2022-09-23T03:16:11.658Z,1012.28
2022-09-23T03:17:11.626Z,1012.27
2022-09-23T03:18:11.644Z,1012.24
2022-09-23T03:19:11.665Z,1012.27
2022-09-23T03:20:11.686Z,1012.20
2022-09-23T03:21:11.707Z,1012.16
2022-09-23T03:22:11.794Z,1012.21
2022-09-23T03:23:11.762Z,1012.16
2022-09-23T03:24:11.784Z,1012.19
2022-09-23T03:25:11.829Z,1012.17
2022-09-23T03:26:18.980Z,1012.14
2022-09-23T03:28:16.341Z,1012.10
2022-09-23T03:29:15.835Z,1012.13
2022-09-23T03:31:09.267Z,1012.15
2022-09-23T03:32:09.310Z,1012.15
2022-09-23T03:33:09.301Z,1012.16
2022-09-23T03:34:09.334Z,1012.12
2022-09-23T03:35:09.342Z,1012.10
2022-09-23T03:36:09.363Z,1012.04
2022-09-23T03:37:09.385Z,1012.11
2022-09-23T03:38:09.406Z,1012.05
2022-09-23T03:39:09.431Z,1012.07
2022-09-23T03:40:09.504Z,1012.05
2022-09-23T03:41:09.468Z,1012.03
2022-09-23T03:42:09.489Z,1012.06
2022-09-23T03:43:09.516Z,1012.06
2022-09-23T03:44:09.592Z,1012.07
2022-09-23T03:45:09.554Z,1012.06
2022-09-23T03:46:09.635Z,1012.06
2022-09-23T03:47:09.738Z,1012.05
2022-09-23T03:48:09.672Z,1012.01
2022-09-23T03:49:09.637Z,1012.05
2022-09-23T03:50:09.658Z,1012.05
2022-09-23T03:51:09.681Z,1012.02
2022-09-23T03:52:09.704Z,1012.04
2022-09-23T03:53:09.723Z,1012.04
2022-09-23T03:54:09.767Z,1012.04
2022-09-23T03:55:09.767Z,1012.03
2022-09-23T03:56:09.783Z,1012.02
2022-09-23T03:57:09.811Z,1012.00
2022-09-23T03:58:09.825Z,1012.03
2022-09-23T03:59:09.859Z,1012.00
2022-09-23T04:00:09.871Z,1011.98
2022-09-23T04:01:09.956Z,1011.96
2022-09-23T04:02:10.017Z,1011.99
2022-09-23T04:03:11.869Z,1011.96
2022-09-23T04:04:09.955Z,1011.90
2022-09-23T04:05:09.978Z,1011.88
2022-09-23T04:06:09.994Z,1011.87
2022-09-23T04:07:10.017Z,1011.82
2022-09-23T04:08:10.037Z,1011.83
2022-09-23T04:09:10.060Z,1011.81
2022-09-23T04:10:10.087Z,1011.80
2022-09-23T04:11:10.100Z,1011.81
2022-09-23T04:12:10.123Z,1011.84
2022-09-23T04:13:10.147Z,1011.82
2022-09-23T04:14:10.163Z,1011.84
2022-09-23T04:15:10.180Z,1011.84
2022-09-23T04:16:10.337Z,1011.85
2022-09-23T04:17:10.231Z,1011.87
2022-09-23T04:18:10.250Z,1011.80
2022-09-23T04:19:11.739Z,1011.82
2022-09-23T04:20:10.293Z,1011.79
2022-09-23T04:21:10.315Z,1011.81
2022-09-23T04:22:10.330Z,1011.82
2022-09-23T04:23:10.355Z,1011.80
2022-09-23T04:24:10.377Z,1011.81
2022-09-23T04:25:10.399Z,1011.78
2022-09-23T04:26:10.429Z,1011.77
2022-09-23T04:27:10.440Z,1011.75
2022-09-23T04:28:10.459Z,1011.75
2022-09-23T04:29:10.515Z,1011.74
2022-09-23T04:30:10.508Z,1011.72
2022-09-23T04:31:10.575Z,1011.72
2022-09-23T04:32:10.550Z,1011.73
2022-09-23T04:33:10.566Z,1011.74
2022-09-23T04:34:10.588Z,1011.71
2022-09-23T04:35:10.609Z,1011.73
2022-09-23T04:36:10.636Z,1011.74
2022-09-23T04:37:10.650Z,1011.69
2022-09-23T04:38:10.673Z,1011.71
2022-09-23T04:39:10.739Z,1011.72
2022-09-23T04:40:10.757Z,1011.71
2022-09-23T04:41:10.734Z,1011.73
2022-09-23T04:42:10.756Z,1011.73
2022-09-23T04:43:13.547Z,1011.71
2022-09-23T04:44:10.801Z,1011.69
2022-09-23T04:45:10.819Z,1011.69
2022-09-23T04:46:10.841Z,1011.69
2022-09-23T04:47:10.864Z,1011.68
2022-09-23T04:48:10.882Z,1011.63
2022-09-23T04:49:10.987Z,1011.61
2022-09-23T04:50:10.922Z,1011.63
2022-09-23T04:51:10.947Z,1011.62
2022-09-23T04:52:10.969Z,1011.59
2022-09-23T04:53:10.989Z,1011.59
2022-09-23T04:54:11.006Z,1011.55
2022-09-23T04:55:11.418Z,1011.58
2022-09-23T04:56:11.051Z,1011.58
2022-09-23T04:57:11.071Z,1011.57
2022-09-23T04:58:11.163Z,1011.56
2022-09-23T04:59:11.209Z,1011.54
2022-09-23T05:00:11.135Z,1011.54
2022-09-23T05:01:11.190Z,1011.56
2022-09-23T05:02:11.245Z,1011.56
2022-09-23T05:03:11.198Z,1011.55
2022-09-23T05:04:11.218Z,1011.60
2022-09-23T05:05:11.241Z,1011.61
2022-09-23T05:06:11.259Z,1011.60
2022-09-23T05:07:11.287Z,1011.63
2022-09-23T05:08:11.300Z,1011.62
2022-09-23T05:09:11.323Z,1011.59
2022-09-23T05:10:11.344Z,1011.64
2022-09-23T05:11:11.365Z,1011.65
2022-09-23T05:12:11.385Z,1011.65
2022-09-23T05:13:11.407Z,1011.64
2022-09-23T05:14:11.433Z,1011.64
2022-09-23T05:15:11.448Z,1011.64
2022-09-23T05:16:11.554Z,1011.63
2022-09-23T05:17:11.489Z,1011.59
2022-09-23T05:18:11.507Z,1011.61
2022-09-23T05:19:11.531Z,1011.59
2022-09-23T05:20:11.563Z,1011.57
2022-09-23T05:21:11.573Z,1011.55
2022-09-23T05:22:11.591Z,1011.55
2022-09-23T05:23:11.624Z,1011.57
2022-09-23T05:24:11.639Z,1011.53
2022-09-23T05:25:11.658Z,1011.54
2022-09-23T05:26:11.679Z,1011.50
2022-09-23T05:27:11.699Z,1011.48
2022-09-23T05:28:11.716Z,1011.51
2022-09-23T05:29:11.742Z,1011.51
2022-09-23T05:30:11.763Z,1011.53
2022-09-23T05:31:14.733Z,1011.51
2022-09-23T05:32:11.809Z,1011.48
2022-09-23T05:33:11.821Z,1011.53
2022-09-23T05:34:11.846Z,1011.52
2022-09-23T05:35:11.865Z,1011.49
2022-09-23T05:36:11.885Z,1011.49
2022-09-23T05:37:11.907Z,1011.46
2022-09-23T05:38:11.928Z,1011.47
2022-09-23T05:39:11.950Z,1011.46
2022-09-23T05:40:11.997Z,1011.47
2022-09-23T05:41:11.989Z,1011.48
2022-09-23T05:42:12.012Z,1011.43
2022-09-23T05:43:12.033Z,1011.42
2022-09-23T05:44:12.051Z,1011.43
2022-09-23T05:45:12.075Z,1011.43
2022-09-23T05:46:12.171Z,1011.44
2022-09-23T05:47:12.118Z,1011.46
2022-09-23T05:48:12.136Z,1011.44
2022-09-23T05:49:12.240Z,1011.40
2022-09-23T05:50:12.177Z,1011.43
2022-09-23T05:51:12.200Z,1011.44
2022-09-23T05:52:12.216Z,1011.43
2022-09-23T05:53:12.239Z,1011.45
2022-09-23T05:54:12.259Z,1011.43
2022-09-23T05:55:12.283Z,1011.39
2022-09-23T05:56:12.304Z,1011.41
2022-09-23T05:57:12.323Z,1011.35
2022-09-23T05:58:12.345Z,1011.37
2022-09-23T05:59:12.370Z,1011.37
2022-09-23T06:00:12.389Z,1011.41
2022-09-23T06:01:12.410Z,1011.44
2022-09-23T06:02:12.491Z,1011.47
2022-09-23T06:03:12.500Z,1011.47
2022-09-23T06:04:12.467Z,1011.48
2022-09-23T06:05:12.497Z,1011.56
2022-09-23T06:06:12.513Z,1011.54
2022-09-23T06:07:12.531Z,1011.54
2022-09-23T06:08:12.554Z,1011.54
2022-09-23T06:09:12.573Z,1011.55
2022-09-23T06:10:12.596Z,1011.54
2022-09-23T06:11:12.618Z,1011.51
2022-09-23T06:12:12.640Z,1011.49
2022-09-23T06:13:12.661Z,1011.54
2022-09-23T06:14:12.683Z,1011.53
2022-09-23T06:15:12.721Z,1011.53
2022-09-23T06:16:12.722Z,1011.52
2022-09-23T06:17:12.742Z,1011.52
2022-09-23T06:18:12.768Z,1011.52
2022-09-23T06:19:12.785Z,1011.53
2022-09-23T06:20:12.810Z,1011.56
2022-09-23T06:21:12.831Z,1011.60
2022-09-23T06:22:12.852Z,1011.60
2022-09-23T06:23:12.872Z,1011.62
2022-09-23T06:24:17.684Z,1011.62
2022-09-23T06:25:12.915Z,1011.66
2022-09-23T06:26:12.937Z,1011.66
2022-09-23T06:27:12.958Z,1011.65
2022-09-23T06:28:13.059Z,1011.71
2022-09-23T06:29:13.000Z,1011.69
2022-09-23T06:30:13.024Z,1011.71
2022-09-23T06:31:13.758Z,1011.68
2022-09-23T06:32:13.068Z,1011.70
2022-09-23T06:33:13.090Z,1011.68
2022-09-23T06:34:14.108Z,1011.66
2022-09-23T06:35:24.907Z,1011.64
2022-09-23T06:36:16.170Z,1011.65
2022-09-23T06:37:19.811Z,1011.62
2022-09-23T06:38:13.196Z,1011.67
2022-09-23T06:39:13.219Z,1011.67
2022-09-23T06:40:13.289Z,1011.64
2022-09-23T06:41:13.261Z,1011.63
2022-09-23T06:42:13.285Z,1011.66
2022-09-23T06:43:13.306Z,1011.61
2022-09-23T06:44:13.332Z,1011.60
2022-09-23T06:45:13.351Z,1011.59
2022-09-23T06:46:13.406Z,1011.60
2022-09-23T06:47:13.394Z,1011.60
2022-09-23T06:48:13.419Z,1011.60
2022-09-23T06:49:13.623Z,1011.58
2022-09-23T06:50:13.459Z,1011.59
2022-09-23T06:51:13.481Z,1011.56
2022-09-23T06:52:13.509Z,1011.57
2022-09-23T06:53:13.525Z,1011.59
2022-09-23T06:54:13.548Z,1011.55
2022-09-23T06:55:13.569Z,1011.58
2022-09-23T06:56:13.593Z,1011.58
2022-09-23T06:57:13.620Z,1011.59
2022-09-23T06:58:13.638Z,1011.59
2022-09-23T06:59:13.658Z,1011.63
2022-09-23T07:00:13.679Z,1011.61
2022-09-23T07:01:13.765Z,1011.61
2022-09-23T07:02:13.841Z,1011.62
2022-09-23T07:03:13.747Z,1011.61
2022-09-23T07:04:13.771Z,1011.61
2022-09-23T07:05:13.907Z,1011.61
2022-09-23T07:06:13.813Z,1011.63
2022-09-23T07:07:13.837Z,1011.63
2022-09-23T07:08:13.863Z,1011.61
2022-09-23T07:09:13.882Z,1011.64
2022-09-23T07:10:13.904Z,1011.61
2022-09-23T07:11:13.924Z,1011.60
2022-09-23T07:12:13.950Z,1011.64
2022-09-23T07:13:16.281Z,1011.60
2022-09-23T07:14:13.992Z,1011.62
2022-09-23T07:15:14.079Z,1011.58
2022-09-23T07:16:14.107Z,1011.62
2022-09-23T07:17:14.058Z,1011.62
2022-09-23T07:18:14.079Z,1011.64
2022-09-23T07:19:14.102Z,1011.63
2022-09-23T07:20:14.128Z,1011.64
2022-09-23T07:21:14.154Z,1011.65
2022-09-23T07:22:14.209Z,1011.60
2022-09-23T07:23:14.196Z,1011.60
2022-09-23T07:24:14.218Z,1011.63
2022-09-23T07:25:14.237Z,1011.61
2022-09-23T07:26:14.261Z,1011.61
2022-09-23T07:27:14.288Z,1011.55
2022-09-23T07:28:14.304Z,1011.58
2022-09-23T07:29:14.329Z,1011.64
2022-09-23T07:30:24.006Z,1011.61
2022-09-23T07:31:14.944Z,1011.62
2022-09-23T07:32:14.659Z,1011.64
2022-09-23T07:33:29.785Z,1011.64
2022-09-23T07:34:14.441Z,1011.62
2022-09-23T07:35:14.461Z,1011.65
2022-09-23T07:36:14.487Z,1011.64
2022-09-23T07:37:14.510Z,1011.63
2022-09-23T07:38:14.532Z,1011.63
2022-09-23T07:39:14.553Z,1011.60
2022-09-23T07:40:14.606Z,1011.60
2022-09-23T07:41:14.601Z,1011.61
2022-09-23T07:42:14.626Z,1011.60
2022-09-23T07:47:01.569Z,1011.57
2022-09-23T07:47:40.093Z,1011.51
2022-09-23T07:49:44.104Z,1011.54
2022-09-23T07:50:44.119Z,1011.55
2022-09-23T07:52:50.123Z,1011.50
2022-09-23T07:53:48.144Z,1011.56
2022-09-23T07:55:52.665Z,1011.54
2022-09-23T07:56:52.681Z,1011.53
2022-09-23T07:57:52.704Z,1011.55
2022-09-23T07:58:52.730Z,1011.54
2022-09-23T07:59:52.750Z,1011.51
2022-09-23T08:00:52.773Z,1011.54
2022-09-23T08:01:52.965Z,1011.52
2022-09-23T08:02:53.221Z,1011.53
2022-09-23T08:03:52.845Z,1011.56
2022-09-23T08:04:52.867Z,1011.51
2022-09-23T08:05:52.889Z,1011.56
2022-09-23T08:06:52.915Z,1011.57
2022-09-23T08:07:52.936Z,1011.55
2022-09-23T08:08:53.625Z,1011.55
2022-09-23T08:09:52.983Z,1011.56
2022-09-23T08:10:53.005Z,1011.59
2022-09-23T08:11:53.029Z,1011.53
2022-09-23T08:12:53.050Z,1011.56
2022-09-23T08:13:53.080Z,1011.53
2022-09-23T08:14:53.099Z,1011.56
2022-09-23T08:15:55.447Z,1011.54
2022-09-23T08:16:53.147Z,1011.58
2022-09-23T08:17:53.169Z,1011.59
2022-09-23T08:18:53.259Z,1011.60
2022-09-23T08:19:53.218Z,1011.58
2022-09-23T08:20:53.244Z,1011.62
2022-09-23T08:21:53.266Z,1011.60
2022-09-23T08:22:53.287Z,1011.64
2022-09-23T08:23:53.309Z,1011.65
2022-09-23T08:24:55.900Z,1011.59
2022-09-23T08:25:54.375Z,1011.65
2022-09-23T08:26:53.385Z,1011.63
2022-09-23T08:27:53.410Z,1011.64
2022-09-23T08:28:53.435Z,1011.65
2022-09-23T08:29:53.456Z,1011.61
2022-09-23T08:30:53.510Z,1011.60
2022-09-23T08:31:53.504Z,1011.62
2022-09-23T08:32:53.533Z,1011.55
2022-09-23T08:33:53.556Z,1011.56
2022-09-23T08:34:53.577Z,1011.58
2022-09-23T08:35:53.599Z,1011.55
2022-09-23T08:36:53.624Z,1011.57
2022-09-23T08:37:53.651Z,1011.55
2022-09-23T08:38:53.671Z,1011.52
2022-09-23T08:39:53.694Z,1011.52
2022-09-23T08:42:58.467Z,1011.51
2022-09-23T08:43:36.464Z,1011.52
2022-09-23T08:45:40.475Z,1011.54
2022-09-23T08:46:40.497Z,1011.51
2022-09-23T08:48:44.987Z,1011.57
2022-09-23T08:49:44.534Z,1011.53
2022-09-23T08:51:44.974Z,1011.50
2022-09-23T08:52:44.989Z,1011.54
2022-09-23T08:54:54.582Z,1011.54
2022-09-23T08:55:49.028Z,1011.53
2022-09-23T08:58:14.030Z,1011.49
2022-09-23T08:58:53.059Z,1011.46
2022-09-23T09:00:57.554Z,1011.50
2022-09-23T09:01:57.086Z,1011.53
2022-09-23T09:04:01.100Z,1011.53
2022-09-23T09:05:01.121Z,1011.52
2022-09-23T09:07:00.121Z,1011.47
2022-09-23T09:07:54.276Z,1011.46
2022-09-23T09:09:58.293Z,1011.45
2022-09-23T09:10:58.340Z,1011.46
2022-09-23T09:13:02.809Z,1011.48
2022-09-23T09:14:02.367Z,1011.47
2022-09-23T09:16:06.444Z,1011.44
2022-09-23T09:17:06.402Z,1011.48
2022-09-23T09:19:10.898Z,1011.45
2022-09-23T09:20:10.440Z,1011.42
2022-09-23T09:22:03.418Z,1011.43
2022-09-23T09:23:03.397Z,1011.44
2022-09-23T09:25:07.892Z,1011.40
2022-09-23T09:26:07.450Z,1011.44
2022-09-23T09:28:11.478Z,1011.40
2022-09-23T09:29:31.253Z,1011.40
2022-09-23T09:31:16.113Z,1011.38
2022-09-23T09:32:15.533Z,1011.30
2022-09-23T09:34:19.557Z,1011.32
2022-09-23T09:35:19.575Z,1011.38
2022-09-23T09:37:24.074Z,1011.34
2022-09-23T09:38:23.613Z,1011.32
2022-09-23T09:40:27.669Z,1011.36
2022-09-23T09:41:27.652Z,1011.34
2022-09-23T09:43:32.383Z,1011.31
2022-09-23T09:44:31.691Z,1011.31
2022-09-23T09:46:35.783Z,1011.28
2022-09-23T09:47:42.908Z,1011.27
2022-09-23T09:49:40.802Z,1011.26
2022-09-23T09:50:39.976Z,1011.22
2022-09-23T09:52:43.952Z,1011.25
2022-09-23T09:53:43.965Z,1011.25
2022-09-23T09:55:48.463Z,1011.21
2022-09-23T09:58:52.027Z,1011.22
2022-09-23T09:59:52.044Z,1011.21
2022-09-23T10:01:45.570Z,1011.22
2022-09-23T10:02:45.007Z,1011.18
2022-09-23T10:06:33.200Z,1011.15
2022-09-23T10:07:32.937Z,1011.15
2022-09-23T10:09:37.434Z,1011.14
2022-09-23T10:10:36.975Z,1011.13
2022-09-23T10:12:41.003Z,1011.07
2022-09-23T10:13:41.013Z,1011.06
2022-09-23T10:15:45.719Z,1011.07
2022-09-23T10:16:45.078Z,1011.06
2022-09-23T10:18:49.081Z,1011.02
2022-09-23T10:19:49.112Z,1011.04
2022-09-23T10:21:43.583Z,1011.03
2022-09-23T10:22:42.073Z,1011.02
2022-09-23T10:24:46.108Z,1011.01
2022-09-23T10:25:46.128Z,1011.01
2022-09-23T10:27:50.630Z,1011.00
2022-09-23T10:28:50.174Z,1010.97
2022-09-23T10:30:54.221Z,1010.98
2022-09-23T10:31:54.214Z,1010.95
2022-09-23T10:34:00.425Z,1010.97
2022-09-23T10:34:58.256Z,1010.97
2022-09-23T10:37:02.292Z,1010.97
2022-09-23T10:38:02.318Z,1010.98
2022-09-23T10:40:06.856Z,1010.97
2022-09-23T10:41:06.437Z,1010.96
2022-09-23T10:43:10.387Z,1010.95
2022-09-23T10:44:10.504Z,1010.91
2022-09-23T10:46:14.953Z,1010.86
2022-09-23T10:47:14.458Z,1010.88
2022-09-23T10:49:18.478Z,1010.91
2022-09-23T10:50:18.504Z,1010.88
2022-09-23T10:52:23.508Z,1010.91
2022-09-23T10:53:22.547Z,1010.88
2022-09-23T10:55:26.582Z,1010.84
2022-09-23T10:56:26.606Z,1010.84
2022-09-23T10:58:31.105Z,1010.89
2022-09-23T10:59:30.648Z,1010.85
2022-09-23T11:01:23.636Z,1010.82
2022-09-23T11:02:23.620Z,1010.83
2022-09-23T11:04:28.190Z,1010.82
2022-09-23T11:05:27.662Z,1010.77
2022-09-23T11:07:36.336Z,1010.72
2022-09-23T11:08:31.760Z,1010.76
2022-09-23T11:10:48.864Z,1010.73
2022-09-23T11:11:35.756Z,1010.68
2022-09-23T11:13:28.906Z,1010.68
2022-09-23T11:14:28.924Z,1010.66
2022-09-23T11:16:33.529Z,1010.62
2022-09-23T11:17:32.981Z,1010.53
2022-09-23T11:19:37.017Z,1010.53
2022-09-23T11:20:37.031Z,1010.55
2022-09-23T11:22:30.529Z,1010.48
2022-09-23T11:23:30.216Z,1010.52
2022-09-23T11:25:34.230Z,1010.48
2022-09-23T11:26:34.247Z,1010.47
2022-09-23T11:28:38.754Z,1010.47
2022-09-23T11:29:38.298Z,1010.47
2022-09-23T11:31:31.244Z,1010.46
2022-09-23T11:32:31.265Z,1010.47
2022-09-23T11:34:35.773Z,1010.43
2022-09-23T11:35:35.314Z,1010.42
2022-09-23T11:37:39.346Z,1010.42
2022-09-23T11:38:39.365Z,1010.43
2022-09-23T11:40:46.504Z,1010.39
2022-09-23T11:41:43.409Z,1010.40
2022-09-23T11:43:47.433Z,1010.38
2022-09-23T11:44:47.456Z,1010.36
2022-09-23T11:46:51.955Z,1010.39
2022-09-23T11:47:51.513Z,1010.38
2022-09-23T11:49:55.529Z,1010.33
2022-09-23T11:50:55.597Z,1010.31
2022-09-23T11:53:00.064Z,1010.26
2022-09-23T11:53:59.603Z,1010.26
2022-09-23T11:56:03.640Z,1010.27
2022-09-23T11:57:03.659Z,1010.27
2022-09-23T11:59:08.544Z,1010.25
2022-09-23T12:00:07.705Z,1010.23
2022-09-23T12:02:09.484Z,1010.24
2022-09-23T12:03:05.516Z,1010.25
2022-09-23T12:05:05.275Z,1010.24
2022-09-23T12:06:04.737Z,1010.27
2022-09-23T12:08:08.766Z,1010.24
2022-09-23T12:10:55.778Z,1010.23
2022-09-23T12:11:32.820Z,1010.19
2022-09-23T12:13:36.851Z,1010.22
2022-09-23T12:14:36.874Z,1010.16
2022-09-23T12:16:41.442Z,1010.16
2022-09-23T12:17:40.918Z,1010.12
2022-09-23T12:19:44.959Z,1010.14
2022-09-23T12:20:44.975Z,1010.12
2022-09-23T12:23:53.467Z,1010.11
2022-09-23T12:24:53.017Z,1010.08
2022-09-23T12:26:57.055Z,1010.06
2022-09-23T12:27:57.064Z,1010.09
2022-09-23T12:29:50.554Z,1010.07
2022-09-23T12:30:50.262Z,1010.07
2022-09-23T12:32:54.262Z,1010.10
2022-09-23T12:33:54.282Z,1010.04
2022-09-23T12:35:58.792Z,1010.05
2022-09-23T12:36:58.341Z,1010.04
2022-09-23T12:39:02.376Z,1010.04
2022-09-23T12:40:02.380Z,1010.05
2022-09-23T12:41:55.869Z,1009.98
2022-09-23T12:42:55.355Z,1010.00
2022-09-23T12:44:59.392Z,1009.95
2022-09-23T12:45:59.445Z,1009.95
2022-09-23T12:48:03.919Z,1009.96
2022-09-23T12:49:03.461Z,1009.92
2022-09-23T12:51:07.506Z,1009.97
2022-09-23T12:52:07.524Z,1009.96
2022-09-23T12:54:12.031Z,1009.97
2022-09-23T12:55:11.566Z,1009.95
2022-09-23T12:57:15.595Z,1009.95
2022-09-23T12:58:15.623Z,1009.92
2022-09-23T13:00:20.139Z,1009.91
2022-09-23T13:01:19.855Z,1009.88
2022-09-23T13:02:19.772Z,1009.84
2022-09-23T13:03:19.727Z,1009.86
2022-09-23T13:04:19.757Z,1009.84
2022-09-23T13:05:19.785Z,1009.83
2022-09-23T13:06:19.816Z,1009.82
2022-09-23T13:07:19.845Z,1009.82
2022-09-23T13:08:19.875Z,1009.79
2022-09-23T13:09:19.907Z,1009.80
2022-09-23T13:10:19.937Z,1009.81
2022-09-23T13:11:19.966Z,1009.81
2022-09-23T13:12:20.001Z,1009.80
2022-09-23T13:13:20.024Z,1009.78
2022-09-23T13:14:22.874Z,1009.77
2022-09-23T13:15:20.088Z,1009.77
2022-09-23T13:16:20.183Z,1009.73
2022-09-23T13:17:20.150Z,1009.71
2022-09-23T13:18:20.182Z,1009.69
2022-09-23T13:19:20.214Z,1009.70
2022-09-23T13:20:20.241Z,1009.68
2022-09-23T13:21:20.268Z,1009.66
2022-09-23T13:22:20.301Z,1009.67
2022-09-23T13:23:20.333Z,1009.68
2022-09-23T13:24:20.361Z,1009.69
2022-09-23T13:25:20.390Z,1009.68
2022-09-23T13:26:20.428Z,1009.65
2022-09-23T13:27:20.450Z,1009.67
2022-09-23T13:28:20.480Z,1009.64
2022-09-23T13:29:20.510Z,1009.61
2022-09-23T13:30:25.762Z,1009.62
2022-09-23T13:31:20.599Z,1009.56
2022-09-23T13:32:20.607Z,1009.57
2022-09-23T13:33:20.659Z,1009.52
2022-09-23T13:34:20.661Z,1009.53
2022-09-23T13:35:20.689Z,1009.52
2022-09-23T13:36:20.721Z,1009.53
2022-09-23T13:37:22.715Z,1009.49
2022-09-23T13:38:20.795Z,1009.53
2022-09-23T13:39:20.810Z,1009.47
2022-09-23T13:40:20.888Z,1009.48
2022-09-23T13:41:20.875Z,1009.49
2022-09-23T13:42:20.898Z,1009.46
2022-09-23T13:43:20.931Z,1009.43
2022-09-23T13:44:20.967Z,1009.47
2022-09-23T13:45:20.993Z,1009.45
2022-09-23T13:46:21.140Z,1009.42
2022-09-23T13:47:21.059Z,1009.45
2022-09-23T13:48:21.085Z,1009.42
2022-09-23T13:49:21.109Z,1009.45
2022-09-23T13:50:21.139Z,1009.42
2022-09-23T13:51:21.171Z,1009.43
2022-09-23T13:52:21.198Z,1009.40
2022-09-23T13:53:21.228Z,1009.41
2022-09-23T13:54:21.267Z,1009.38
2022-09-23T13:55:21.290Z,1009.37
2022-09-23T13:56:21.319Z,1009.37
2022-09-23T13:57:21.348Z,1009.38
2022-09-23T13:58:21.393Z,1009.38
2022-09-23T13:59:21.415Z,1009.34
2022-09-23T14:00:21.439Z,1009.35
2022-09-23T14:01:21.497Z,1009.33
2022-09-23T14:02:21.593Z,1009.32
2022-09-23T14:03:21.527Z,1009.34
2022-09-23T14:04:21.556Z,1009.34
2022-09-23T14:05:21.597Z,1009.34
2022-09-23T14:06:21.619Z,1009.36
2022-09-23T14:07:21.647Z,1009.29
2022-09-23T14:08:21.678Z,1009.29
2022-09-23T14:09:21.708Z,1009.27
2022-09-23T14:10:21.735Z,1009.29
2022-09-23T14:11:21.770Z,1009.27
2022-09-23T14:12:21.799Z,1009.28
2022-09-23T14:13:25.726Z,1009.25
2022-09-23T14:14:21.883Z,1009.29
2022-09-23T14:15:21.885Z,1009.27
2022-09-23T14:16:21.957Z,1009.26
2022-09-23T14:17:21.947Z,1009.22
2022-09-23T14:18:21.976Z,1009.19
2022-09-23T14:19:22.001Z,1009.19
2022-09-23T14:20:22.036Z,1009.20
2022-09-23T14:21:22.063Z,1009.19
2022-09-23T14:22:22.094Z,1009.19
2022-09-23T14:23:22.124Z,1009.20
2022-09-23T14:24:22.153Z,1009.17
2022-09-23T14:25:22.178Z,1009.20